sensor_id;sensor_type;location;lat;lon;timestamp;pressure;altitude;pressure_sealevel;temperature;humidity
76352;BME280;65179;47.786;19.138;2024-03-22T00:00:40;100540.88;;;10.73;66.33
76352;BME280;65179;47.786;19.138;2024-03-22T00:03:06;100539.78;;;10.87;65.69
76352;BME280;65179;47.786;19.138;2024-03-22T00:05:31;100537.41;;;10.97;65.37
76352;BME280;65179;47.786;19.138;2024-03-22T00:07:57;100529.44;;;11.02;65.03
76352;BME280;65179;47.786;19.138;2024-03-22T00:10:22;100535.03;;;11.07;64.73
76352;BME280;65179;47.786;19.138;2024-03-22T00:12:51;100539.00;;;11.11;64.63
76352;BME280;65179;47.786;19.138;2024-03-22T00:15:16;100536.66;;;11.14;64.58
76352;BME280;65179;47.786;19.138;2024-03-22T00:17:45;100529.34;;;11.15;64.45
76352;BME280;65179;47.786;19.138;2024-03-22T00:20:11;100526.41;;;11.16;64.47
76352;BME280;65179;47.786;19.138;2024-03-22T00:22:36;100528.50;;;11.14;64.57
76352;BME280;65179;47.786;19.138;2024-03-22T00:25:02;100531.66;;;11.11;64.47
76352;BME280;65179;47.786;19.138;2024-03-22T00:27:27;100526.62;;;11.15;64.40
76352;BME280;65179;47.786;19.138;2024-03-22T00:29:53;100515.16;;;11.13;64.38
76352;BME280;65179;47.786;19.138;2024-03-22T00:32:18;100522.22;;;11.14;64.31
76352;BME280;65179;47.786;19.138;2024-03-22T00:34:44;100526.81;;;11.13;64.35
76352;BME280;65179;47.786;19.138;2024-03-22T00:37:10;100525.19;;;11.12;64.32
76352;BME280;65179;47.786;19.138;2024-03-22T00:39:36;100513.47;;;11.12;64.37
76352;BME280;65179;47.786;19.138;2024-03-22T00:42:01;100519.75;;;11.12;64.35
76352;BME280;65179;47.786;19.138;2024-03-22T00:44:27;100518.66;;;11.13;64.38
76352;BME280;65179;47.786;19.138;2024-03-22T00:46:52;100527.28;;;11.10;64.31
76352;BME280;65179;47.786;19.138;2024-03-22T00:49:18;100516.84;;;11.07;64.48
76352;BME280;65179;47.786;19.138;2024-03-22T00:51:43;100516.84;;;11.07;64.55
76352;BME280;65179;47.786;19.138;2024-03-22T00:54:10;100518.09;;;11.05;64.77
76352;BME280;65179;47.786;19.138;2024-03-22T00:56:35;100503.91;;;11.03;64.79
76352;BME280;65179;47.786;19.138;2024-03-22T00:59:01;100508.13;;;10.99;65.04
76352;BME280;65179;47.786;19.138;2024-03-22T01:01:26;100520.25;;;10.96;65.14
76352;BME280;65179;47.786;19.138;2024-03-22T01:03:52;100522.53;;;10.99;65.04
76352;BME280;65179;47.786;19.138;2024-03-22T01:06:17;100521.94;;;10.97;65.02
76352;BME280;65179;47.786;19.138;2024-03-22T01:08:48;100524.44;;;10.99;65.02
76352;BME280;65179;47.786;19.138;2024-03-22T01:11:14;100523.81;;;10.97;65.17
76352;BME280;65179;47.786;19.138;2024-03-22T01:13:39;100518.37;;;10.97;65.14
76352;BME280;65179;47.786;19.138;2024-03-22T01:16:05;100516.09;;;10.94;65.66
76352;BME280;65179;47.786;19.138;2024-03-22T01:18:30;100526.75;;;10.95;65.36
76352;BME280;65179;47.786;19.138;2024-03-22T01:20:56;100514.00;;;10.96;65.51
76352;BME280;65179;47.786;19.138;2024-03-22T01:23:21;100515.66;;;10.97;65.34
76352;BME280;65179;47.786;19.138;2024-03-22T01:25:47;100515.25;;;11.00;65.30
76352;BME280;65179;47.786;19.138;2024-03-22T01:28:12;100509.56;;;11.01;65.11
76352;BME280;65179;47.786;19.138;2024-03-22T01:30:38;100513.12;;;11.02;65.17
76352;BME280;65179;47.786;19.138;2024-03-22T01:33:03;100522.31;;;11.01;65.46
76352;BME280;65179;47.786;19.138;2024-03-22T01:35:29;100516.47;;;11.04;65.55
76352;BME280;65179;47.786;19.138;2024-03-22T01:37:54;100507.25;;;11.05;65.56
76352;BME280;65179;47.786;19.138;2024-03-22T01:40:20;100508.91;;;11.06;65.41
76352;BME280;65179;47.786;19.138;2024-03-22T01:42:45;100505.97;;;11.07;65.30
76352;BME280;65179;47.786;19.138;2024-03-22T01:45:12;100505.31;;;11.12;64.99
76352;BME280;65179;47.786;19.138;2024-03-22T01:47:39;100498.00;;;11.12;65.03
76352;BME280;65179;47.786;19.138;2024-03-22T01:50:06;100496.12;;;11.13;65.13
76352;BME280;65179;47.786;19.138;2024-03-22T01:52:32;100495.06;;;11.14;65.08
76352;BME280;65179;47.786;19.138;2024-03-22T01:54:58;100501.56;;;11.13;65.21
76352;BME280;65179;47.786;19.138;2024-03-22T01:57:23;100497.34;;;11.17;64.88
76352;BME280;65179;47.786;19.138;2024-03-22T01:59:49;100498.37;;;11.16;65.13
76352;BME280;65179;47.786;19.138;2024-03-22T02:02:17;100495.88;;;11.14;65.23
76352;BME280;65179;47.786;19.138;2024-03-22T02:04:42;100500.06;;;11.17;65.16
76352;BME280;65179;47.786;19.138;2024-03-22T02:07:08;100495.88;;;11.14;65.25
76352;BME280;65179;47.786;19.138;2024-03-22T02:09:33;100494.87;;;11.09;65.61
76352;BME280;65179;47.786;19.138;2024-03-22T02:11:59;100502.38;;;11.13;65.42
76352;BME280;65179;47.786;19.138;2024-03-22T02:14:24;100508.41;;;11.15;65.14
76352;BME280;65179;47.786;19.138;2024-03-22T02:16:50;100505.69;;;11.15;65.58
76352;BME280;65179;47.786;19.138;2024-03-22T02:19:16;100499.22;;;11.16;65.49
76352;BME280;65179;47.786;19.138;2024-03-22T02:21:41;100495.88;;;11.14;65.39
76352;BME280;65179;47.786;19.138;2024-03-22T02:24:07;100497.53;;;11.15;65.49
76352;BME280;65179;47.786;19.138;2024-03-22T02:26:32;100495.06;;;11.14;65.60
76352;BME280;65179;47.786;19.138;2024-03-22T02:28:58;100493.41;;;11.13;65.62
76352;BME280;65179;47.786;19.138;2024-03-22T02:31:23;100491.50;;;11.13;65.39
76352;BME280;65179;47.786;19.138;2024-03-22T02:33:51;100491.72;;;11.12;65.41
76352;BME280;65179;47.786;19.138;2024-03-22T02:36:16;100491.72;;;11.12;65.64
76352;BME280;65179;47.786;19.138;2024-03-22T02:38:42;100492.16;;;11.09;65.68
76352;BME280;65179;47.786;19.138;2024-03-22T02:41:07;100491.16;;;11.03;65.83
76352;BME280;65179;47.786;19.138;2024-03-22T02:43:33;100492.66;;;10.99;66.46
76352;BME280;65179;47.786;19.138;2024-03-22T02:45:58;100489.34;;;10.97;66.60
76352;BME280;65179;47.786;19.138;2024-03-22T02:48:23;100487.44;;;10.98;66.57
76352;BME280;65179;47.786;19.138;2024-03-22T02:50:49;100486.62;;;10.97;66.51
76352;BME280;65179;47.786;19.138;2024-03-22T02:53:14;100490.59;;;10.95;67.23
76352;BME280;65179;47.786;19.138;2024-03-22T02:55:40;100490.16;;;10.98;66.94
76352;BME280;65179;47.786;19.138;2024-03-22T02:58:07;100481.19;;;10.97;66.91
76352;BME280;65179;47.786;19.138;2024-03-22T03:00:36;100487.44;;;10.98;67.21
76352;BME280;65179;47.786;19.138;2024-03-22T03:03:04;100478.47;;;10.97;67.40
76352;BME280;65179;47.786;19.138;2024-03-22T03:05:29;100477.63;;;10.97;67.28
76352;BME280;65179;47.786;19.138;2024-03-22T03:07:55;100483.06;;;10.97;67.21
76352;BME280;65179;47.786;19.138;2024-03-22T03:10:20;100482.03;;;10.98;67.37
76352;BME280;65179;47.786;19.138;2024-03-22T03:12:46;100482.22;;;10.96;67.43
76352;BME280;65179;47.786;19.138;2024-03-22T03:15:11;100478.88;;;10.94;67.61
76352;BME280;65179;47.786;19.138;2024-03-22T03:17:36;100480.75;;;10.94;67.47
76352;BME280;65179;47.786;19.138;2024-03-22T03:20:03;100476.41;;;10.93;67.74
76352;BME280;65179;47.786;19.138;2024-03-22T03:22:33;100483.94;;;10.91;67.87
76352;BME280;65179;47.786;19.138;2024-03-22T03:24:58;100478.75;;;10.89;67.91
76352;BME280;65179;47.786;19.138;2024-03-22T03:27:24;100485.22;;;10.88;67.96
76352;BME280;65179;47.786;19.138;2024-03-22T03:29:49;100493.59;;;10.87;68.43
76352;BME280;65179;47.786;19.138;2024-03-22T03:32:14;100490.47;;;10.83;68.65
76352;BME280;65179;47.786;19.138;2024-03-22T03:34:40;100490.25;;;10.85;68.72
76352;BME280;65179;47.786;19.138;2024-03-22T03:37:05;100493.78;;;10.85;68.33
76352;BME280;65179;47.786;19.138;2024-03-22T03:39:31;100491.31;;;10.84;68.59
76352;BME280;65179;47.786;19.138;2024-03-22T03:41:56;100499.44;;;10.84;68.76
76352;BME280;65179;47.786;19.138;2024-03-22T03:44:22;100485.25;;;10.82;69.00
76352;BME280;65179;47.786;19.138;2024-03-22T03:46:47;100491.72;;;10.81;68.76
76352;BME280;65179;47.786;19.138;2024-03-22T03:49:13;100504.09;;;10.77;69.52
76352;BME280;65179;47.786;19.138;2024-03-22T03:51:38;100506.19;;;10.75;69.63
76352;BME280;65179;47.786;19.138;2024-03-22T03:54:04;100497.44;;;10.73;69.71
76352;BME280;65179;47.786;19.138;2024-03-22T03:56:29;100500.97;;;10.73;69.58
76352;BME280;65179;47.786;19.138;2024-03-22T03:58:55;100494.94;;;10.71;69.89
76352;BME280;65179;47.786;19.138;2024-03-22T04:01:21;100512.69;;;10.74;69.92
76352;BME280;65179;47.786;19.138;2024-03-22T04:03:48;100505.37;;;10.74;70.89
76352;BME280;65179;47.786;19.138;2024-03-22T04:06:14;100502.84;;;10.73;71.18
76352;BME280;65179;47.786;19.138;2024-03-22T04:08:39;100512.69;;;10.74;71.41
76352;BME280;65179;47.786;19.138;2024-03-22T04:11:05;100507.25;;;10.74;71.61
76352;BME280;65179;47.786;19.138;2024-03-22T04:13:30;100518.97;;;10.74;72.70
76352;BME280;65179;47.786;19.138;2024-03-22T04:15:58;100519.56;;;10.76;73.34
76352;BME280;65179;47.786;19.138;2024-03-22T04:18:24;100518.72;;;10.76;72.77
76352;BME280;65179;47.786;19.138;2024-03-22T04:20:56;100521.44;;;10.76;73.39
76352;BME280;65179;47.786;19.138;2024-03-22T04:23:23;100525.00;;;10.76;74.25
76352;BME280;65179;47.786;19.138;2024-03-22T04:25:56;100520.84;;;10.74;74.33
76352;BME280;65179;47.786;19.138;2024-03-22T04:28:21;100518.13;;;10.74;74.95
76352;BME280;65179;47.786;19.138;2024-03-22T04:30:59;100521.25;;;10.71;75.79
76352;BME280;65179;47.786;19.138;2024-03-22T04:33:25;100525.03;;;10.70;75.42
76352;BME280;65179;47.786;19.138;2024-03-22T04:35:51;100527.16;;;10.68;75.91
76352;BME280;65179;47.786;19.138;2024-03-22T04:38:16;100525.25;;;10.68;75.86
76352;BME280;65179;47.786;19.138;2024-03-22T04:40:42;100526.31;;;10.67;75.23
76352;BME280;65179;47.786;19.138;2024-03-22T04:43:08;100524.63;;;10.66;76.43
76352;BME280;65179;47.786;19.138;2024-03-22T04:45:33;100517.53;;;10.65;76.20
76352;BME280;65179;47.786;19.138;2024-03-22T04:48:01;100519.41;;;10.64;76.64
76352;BME280;65179;47.786;19.138;2024-03-22T04:50:27;100514.22;;;10.63;76.92
76352;BME280;65179;47.786;19.138;2024-03-22T04:52:53;100513.16;;;10.64;76.20
76352;BME280;65179;47.786;19.138;2024-03-22T04:55:18;100513.38;;;10.62;76.76
76352;BME280;65179;47.786;19.138;2024-03-22T04:57:44;100513.38;;;10.62;77.10
76352;BME280;65179;47.786;19.138;2024-03-22T05:00:09;100511.69;;;10.61;76.64
76352;BME280;65179;47.786;19.138;2024-03-22T05:02:35;100504.63;;;10.60;77.05
76352;BME280;65179;47.786;19.138;2024-03-22T05:05:00;100514.22;;;10.63;76.68
76352;BME280;65179;47.786;19.138;2024-03-22T05:07:26;100521.53;;;10.62;77.25
76352;BME280;65179;47.786;19.138;2024-03-22T05:09:51;100514.41;;;10.61;77.15
76352;BME280;65179;47.786;19.138;2024-03-22T05:12:17;100504.16;;;10.63;76.50
76352;BME280;65179;47.786;19.138;2024-03-22T05:14:42;100510.44;;;10.64;76.56
76352;BME280;65179;47.786;19.138;2024-03-22T05:17:08;100504.38;;;10.62;76.98
76352;BME280;65179;47.786;19.138;2024-03-22T05:19:33;100508.56;;;10.64;76.58
76352;BME280;65179;47.786;19.138;2024-03-22T05:21:58;100498.72;;;10.63;76.27
76352;BME280;65179;47.786;19.138;2024-03-22T05:24:25;100502.91;;;10.66;76.13
76352;BME280;65179;47.786;19.138;2024-03-22T05:26:51;100509.59;;;10.63;76.97
76352;BME280;65179;47.786;19.138;2024-03-22T05:29:16;100500.41;;;10.64;77.16
76352;BME280;65179;47.786;19.138;2024-03-22T05:31:46;100508.31;;;10.66;76.73
76352;BME280;65179;47.786;19.138;2024-03-22T05:34:13;100505.84;;;10.64;77.23
76352;BME280;65179;47.786;19.138;2024-03-22T05:36:40;100505.41;;;10.68;77.04
76352;BME280;65179;47.786;19.138;2024-03-22T05:39:05;100504.56;;;10.67;77.36
76352;BME280;65179;47.786;19.138;2024-03-22T05:41:31;100502.47;;;10.69;77.56
76352;BME280;65179;47.786;19.138;2024-03-22T05:43:56;100505.81;;;10.71;77.61
76352;BME280;65179;47.786;19.138;2024-03-22T05:46:22;100500.75;;;10.75;77.18
76352;BME280;65179;47.786;19.138;2024-03-22T05:48:47;100504.69;;;10.79;77.41
76352;BME280;65179;47.786;19.138;2024-03-22T05:51:14;100512.00;;;10.85;76.96
76352;BME280;65179;47.786;19.138;2024-03-22T05:53:40;100507.31;;;10.92;77.01
76352;BME280;65179;47.786;19.138;2024-03-22T05:56:06;100514.44;;;10.93;77.19
76352;BME280;65179;47.786;19.138;2024-03-22T05:58:31;100505.88;;;10.96;77.50
76352;BME280;65179;47.786;19.138;2024-03-22T06:00:57;100510.19;;;11.03;76.82
76352;BME280;65179;47.786;19.138;2024-03-22T06:03:23;100518.72;;;11.07;77.53
76352;BME280;65179;47.786;19.138;2024-03-22T06:05:49;100511.81;;;11.11;77.49
76352;BME280;65179;47.786;19.138;2024-03-22T06:08:14;100509.75;;;11.06;77.68
76352;BME280;65179;47.786;19.138;2024-03-22T06:10:45;100515.63;;;11.03;78.02
76352;BME280;65179;47.786;19.138;2024-03-22T06:13:10;100511.03;;;11.04;77.76
76352;BME280;65179;47.786;19.138;2024-03-22T06:15:36;100508.91;;;11.06;77.59
76352;BME280;65179;47.786;19.138;2024-03-22T06:18:01;100516.47;;;11.04;77.93
76352;BME280;65179;47.786;19.138;2024-03-22T06:20:27;100517.06;;;11.06;78.06
76352;BME280;65179;47.786;19.138;2024-03-22T06:22:52;100513.09;;;11.08;78.04
76352;BME280;65179;47.786;19.138;2024-03-22T06:25:17;100514.72;;;11.09;78.02
76352;BME280;65179;47.786;19.138;2024-03-22T06:27:43;100516.78;;;11.14;78.13
76352;BME280;65179;47.786;19.138;2024-03-22T06:30:09;100507.97;;;11.18;77.74
76352;BME280;65179;47.786;19.138;2024-03-22T06:32:35;100508.53;;;11.27;77.36
76352;BME280;65179;47.786;19.138;2024-03-22T06:35:00;100513.06;;;11.33;77.24
76352;BME280;65179;47.786;19.138;2024-03-22T06:37:26;100508.84;;;11.37;77.58
76352;BME280;65179;47.786;19.138;2024-03-22T06:39:51;100506.13;;;11.37;77.66
76352;BME280;65179;47.786;19.138;2024-03-22T06:42:17;100506.53;;;11.40;77.70
76352;BME280;65179;47.786;19.138;2024-03-22T06:44:42;100509.03;;;11.42;77.74
76352;BME280;65179;47.786;19.138;2024-03-22T06:47:07;100512.97;;;11.46;77.62
76352;BME280;65179;47.786;19.138;2024-03-22T06:49:33;100518.41;;;11.46;77.66
76352;BME280;65179;47.786;19.138;2024-03-22T06:51:58;100512.97;;;11.46;77.63
76352;BME280;65179;47.786;19.138;2024-03-22T06:54:24;100519.47;;;11.45;77.43
76352;BME280;65179;47.786;19.138;2024-03-22T06:56:51;100522.34;;;11.50;77.55
76352;BME280;65179;47.786;19.138;2024-03-22T06:59:16;100534.72;;;11.46;77.63
76352;BME280;65179;47.786;19.138;2024-03-22T07:01:42;100538.50;;;11.45;77.47
76352;BME280;65179;47.786;19.138;2024-03-22T07:04:08;100540.16;;;11.46;77.68
76352;BME280;65179;47.786;19.138;2024-03-22T07:06:33;100532.00;;;11.46;77.85
76352;BME280;65179;47.786;19.138;2024-03-22T07:08:59;100534.06;;;11.51;77.37
76352;BME280;65179;47.786;19.138;2024-03-22T07:11:24;100536.72;;;11.57;77.48
76352;BME280;65179;47.786;19.138;2024-03-22T07:13:50;100541.31;;;11.57;77.24
76352;BME280;65179;47.786;19.138;2024-03-22T07:16:15;100539.38;;;11.64;76.77
76352;BME280;65179;47.786;19.138;2024-03-22T07:18:41;100542.94;;;11.64;76.60
76352;BME280;65179;47.786;19.138;2024-03-22T07:21:06;100547.75;;;11.69;76.42
76352;BME280;65179;47.786;19.138;2024-03-22T07:23:32;100553.28;;;11.80;76.10
76352;BME280;65179;47.786;19.138;2024-03-22T07:25:58;100540.69;;;11.86;75.68
76352;BME280;65179;47.786;19.138;2024-03-22T07:28:24;100547.19;;;12.03;75.28
76352;BME280;65179;47.786;19.138;2024-03-22T07:30:50;100553.47;;;12.03;75.51
76352;BME280;65179;47.786;19.138;2024-03-22T07:33:15;100550.00;;;12.14;75.13
76352;BME280;65179;47.786;19.138;2024-03-22T07:35:43;100551.81;;;12.21;75.02
76352;BME280;65179;47.786;19.138;2024-03-22T07:38:10;100551.34;;;12.24;74.61
76352;BME280;65179;47.786;19.138;2024-03-22T07:40:35;100554.84;;;12.31;74.62
76352;BME280;65179;47.786;19.138;2024-03-22T07:43:01;100563.91;;;12.25;74.06
76352;BME280;65179;47.786;19.138;2024-03-22T07:45:33;100570.56;;;12.29;74.00
76352;BME280;65179;47.786;19.138;2024-03-22T07:47:59;100569.72;;;12.28;73.90
76352;BME280;65179;47.786;19.138;2024-03-22T07:50:25;100573.97;;;12.24;74.04
76352;BME280;65179;47.786;19.138;2024-03-22T07:52:50;100571.47;;;12.23;74.01
76352;BME280;65179;47.786;19.138;2024-03-22T07:55:16;100563.06;;;12.24;73.54
76352;BME280;65179;47.786;19.138;2024-03-22T07:57:41;100573.91;;;12.31;73.42
76352;BME280;65179;47.786;19.138;2024-03-22T08:00:07;100568.69;;;12.29;73.04
76352;BME280;65179;47.786;19.138;2024-03-22T08:02:33;100567.16;;;12.33;73.07
76352;BME280;65179;47.786;19.138;2024-03-22T08:04:58;100560.59;;;12.41;72.99
76352;BME280;65179;47.786;19.138;2024-03-22T08:07:24;100559.88;;;12.45;72.86
76352;BME280;65179;47.786;19.138;2024-03-22T08:09:49;100564.88;;;12.48;72.51
76352;BME280;65179;47.786;19.138;2024-03-22T08:12:15;100563.59;;;12.51;72.38
76352;BME280;65179;47.786;19.138;2024-03-22T08:14:41;100565.72;;;12.49;72.52
76352;BME280;65179;47.786;19.138;2024-03-22T08:17:07;100563.16;;;12.54;72.38
76352;BME280;65179;47.786;19.138;2024-03-22T08:19:34;100565.66;;;12.55;72.49
76352;BME280;65179;47.786;19.138;2024-03-22T08:22:00;100573.97;;;12.60;72.47
76352;BME280;65179;47.786;19.138;2024-03-22T08:24:25;100575.53;;;12.68;72.13
76352;BME280;65179;47.786;19.138;2024-03-22T08:26:51;100565.31;;;12.81;71.71
76352;BME280;65179;47.786;19.138;2024-03-22T08:29:16;100577.91;;;12.94;71.06
76352;BME280;65179;47.786;19.138;2024-03-22T08:31:42;100581.09;;;12.91;70.35
76352;BME280;65179;47.786;19.138;2024-03-22T08:34:08;100573.31;;;12.94;70.08
76352;BME280;65179;47.786;19.138;2024-03-22T08:36:34;100573.81;;;13.03;69.91
76352;BME280;65179;47.786;19.138;2024-03-22T08:39:03;100575.78;;;13.14;69.38
76352;BME280;65179;47.786;19.138;2024-03-22T08:41:28;100570.84;;;13.34;69.12
76352;BME280;65179;47.786;19.138;2024-03-22T08:43:54;100564.50;;;13.63;68.30
76352;BME280;65179;47.786;19.138;2024-03-22T08:46:19;100561.19;;;13.85;66.79
76352;BME280;65179;47.786;19.138;2024-03-22T08:48:46;100563.78;;;14.26;66.14
76352;BME280;65179;47.786;19.138;2024-03-22T08:51:13;100559.00;;;14.56;64.85
76352;BME280;65179;47.786;19.138;2024-03-22T08:53:39;100554.03;;;14.81;64.16
76352;BME280;65179;47.786;19.138;2024-03-22T08:56:04;100548.41;;;14.88;63.12
76352;BME280;65179;47.786;19.138;2024-03-22T08:58:30;100555.56;;;15.34;62.26
76352;BME280;65179;47.786;19.138;2024-03-22T09:00:56;100536.22;;;15.52;61.40
76352;BME280;65179;47.786;19.138;2024-03-22T09:03:22;100539.09;;;15.45;61.30
76352;BME280;65179;47.786;19.138;2024-03-22T09:05:47;100539.03;;;15.57;61.30
76352;BME280;65179;47.786;19.138;2024-03-22T09:08:13;100541.50;;;15.58;60.36
76352;BME280;65179;47.786;19.138;2024-03-22T09:10:39;100539.09;;;15.62;61.01
76352;BME280;65179;47.786;19.138;2024-03-22T09:13:04;100528.72;;;15.64;61.40
76352;BME280;65179;47.786;19.138;2024-03-22T09:15:30;100539.03;;;15.57;61.09
76352;BME280;65179;47.786;19.138;2024-03-22T09:17:56;100546.47;;;15.45;61.11
76352;BME280;65179;47.786;19.138;2024-03-22T09:20:21;100539.19;;;15.50;61.80
76352;BME280;65179;47.786;19.138;2024-03-22T09:22:48;100530.06;;;15.61;61.49
76352;BME280;65179;47.786;19.138;2024-03-22T09:25:14;100531.41;;;15.59;61.23
76352;BME280;65179;47.786;19.138;2024-03-22T09:27:39;100534.94;;;15.59;61.25
76352;BME280;65179;47.786;19.138;2024-03-22T09:30:05;100527.25;;;15.56;61.33
76352;BME280;65179;47.786;19.138;2024-03-22T09:32:31;100526.41;;;15.56;61.63
76352;BME280;65179;47.786;19.138;2024-03-22T09:34:57;100528.31;;;15.55;61.41
76352;BME280;65179;47.786;19.138;2024-03-22T09:37:22;100527.56;;;15.43;61.83
76352;BME280;65179;47.786;19.138;2024-03-22T09:39:47;100526.38;;;15.39;62.25
76352;BME280;65179;47.786;19.138;2024-03-22T09:42:16;100511.28;;;15.37;62.03
76352;BME280;65179;47.786;19.138;2024-03-22T09:44:48;100512.13;;;15.37;62.11
76352;BME280;65179;47.786;19.138;2024-03-22T09:47:16;100502.88;;;15.55;61.54
76352;BME280;65179;47.786;19.138;2024-03-22T09:49:43;100497.63;;;15.70;61.05
76352;BME280;65179;47.786;19.138;2024-03-22T09:52:14;100493.12;;;15.80;61.20
76352;BME280;65179;47.786;19.138;2024-03-22T09:54:46;100494.22;;;16.01;60.51
76352;BME280;65179;47.786;19.138;2024-03-22T09:57:15;100495.16;;;16.07;60.28
76352;BME280;65179;47.786;19.138;2024-03-22T09:59:44;100499.91;;;16.16;59.97
76352;BME280;65179;47.786;19.138;2024-03-22T10:02:11;100497.38;;;16.31;59.86
76352;BME280;65179;47.786;19.138;2024-03-22T10:04:43;100486.03;;;16.44;59.60
76352;BME280;65179;47.786;19.138;2024-03-22T10:07:09;100488.13;;;16.37;59.45
76352;BME280;65179;47.786;19.138;2024-03-22T10:09:35;100488.28;;;16.26;59.91
76352;BME280;65179;47.786;19.138;2024-03-22T10:12:01;100479.91;;;16.37;60.32
76352;BME280;65179;47.786;19.138;2024-03-22T10:14:28;100487.13;;;16.43;59.80
76352;BME280;65179;47.786;19.138;2024-03-22T10:16:53;100493.97;;;16.62;59.10
76352;BME280;65179;47.786;19.138;2024-03-22T10:19:20;100486.00;;;16.61;59.13
76352;BME280;65179;47.786;19.138;2024-03-22T10:21:47;100489.88;;;16.65;58.84
76352;BME280;65179;47.786;19.138;2024-03-22T10:24:12;100488.22;;;16.64;59.04
76352;BME280;65179;47.786;19.138;2024-03-22T10:26:39;100490.06;;;16.58;59.23
76352;BME280;65179;47.786;19.138;2024-03-22T10:29:07;100486.78;;;16.56;58.90
76352;BME280;65179;47.786;19.138;2024-03-22T10:31:35;100492.44;;;16.50;58.99
76352;BME280;65179;47.786;19.138;2024-03-22T10:34:02;100489.47;;;16.13;59.80
76352;BME280;65179;47.786;19.138;2024-03-22T10:36:31;100490.50;;;16.50;59.50
76352;BME280;65179;47.786;19.138;2024-03-22T10:38:58;100486.03;;;16.66;59.28
76352;BME280;65179;47.786;19.138;2024-03-22T10:41:25;100481.53;;;16.82;59.03
76352;BME280;65179;47.786;19.138;2024-03-22T10:43:50;100490.12;;;16.63;59.75
76352;BME280;65179;47.786;19.138;2024-03-22T10:46:20;100493.50;;;16.71;59.13
76352;BME280;65179;47.786;19.138;2024-03-22T10:48:48;100488.31;;;16.74;59.44
76352;BME280;65179;47.786;19.138;2024-03-22T10:51:15;100484.06;;;16.61;59.38
76352;BME280;65179;47.786;19.138;2024-03-22T10:53:41;100481.00;;;16.36;60.57
76352;BME280;65179;47.786;19.138;2024-03-22T10:56:08;100480.03;;;16.69;59.68
76352;BME280;65179;47.786;19.138;2024-03-22T10:58:39;100476.06;;;16.82;59.50
76352;BME280;65179;47.786;19.138;2024-03-22T11:01:05;100480.25;;;16.62;59.87
76352;BME280;65179;47.786;19.138;2024-03-22T11:03:30;100481.06;;;16.90;59.32
76352;BME280;65179;47.786;19.138;2024-03-22T11:05:56;100478.81;;;16.82;59.38
76352;BME280;65179;47.786;19.138;2024-03-22T11:08:26;100478.75;;;17.03;58.71
76352;BME280;65179;47.786;19.138;2024-03-22T11:10:52;100470.72;;;17.28;58.13
76352;BME280;65179;47.786;19.138;2024-03-22T11:13:17;100468.00;;;17.60;57.38
76352;BME280;65179;47.786;19.138;2024-03-22T11:15:43;100464.53;;;17.75;57.10
76352;BME280;65179;47.786;19.138;2024-03-22T11:18:09;100464.56;;;17.43;56.32
76352;BME280;65179;47.786;19.138;2024-03-22T11:20:38;100456.00;;;17.76;55.37
76352;BME280;65179;47.786;19.138;2024-03-22T11:23:04;100449.25;;;17.52;55.36
76352;BME280;65179;47.786;19.138;2024-03-22T11:25:33;100462.19;;;17.57;54.99
76352;BME280;65179;47.786;19.138;2024-03-22T11:27:59;100456.69;;;17.52;54.39
76352;BME280;65179;47.786;19.138;2024-03-22T11:30:33;100457.91;;;17.71;54.93
76352;BME280;65179;47.786;19.138;2024-03-22T11:33:03;100453.97;;;17.25;55.85
76352;BME280;65179;47.786;19.138;2024-03-22T11:35:28;100447.91;;;17.55;55.20
76352;BME280;65179;47.786;19.138;2024-03-22T11:37:54;100442.97;;;17.25;54.94
76352;BME280;65179;47.786;19.138;2024-03-22T11:40:21;100445.78;;;17.30;55.76
76352;BME280;65179;47.786;19.138;2024-03-22T11:42:50;100447.81;;;17.44;55.14
76352;BME280;65179;47.786;19.138;2024-03-22T11:45:18;100440.13;;;17.47;53.10
76352;BME280;65179;47.786;19.138;2024-03-22T11:47:47;100437.56;;;17.35;53.85
76352;BME280;65179;47.786;19.138;2024-03-22T11:50:14;100431.56;;;17.38;54.15
76352;BME280;65179;47.786;19.138;2024-03-22T11:52:43;100436.34;;;17.53;53.40
76352;BME280;65179;47.786;19.138;2024-03-22T11:55:11;100425.00;;;17.44;53.21
76352;BME280;65179;47.786;19.138;2024-03-22T11:57:37;100416.16;;;17.69;52.17
76352;BME280;65179;47.786;19.138;2024-03-22T12:00:04;100418.00;;;17.26;50.52
76352;BME280;65179;47.786;19.138;2024-03-22T12:02:35;100418.25;;;17.52;50.88
76352;BME280;65179;47.786;19.138;2024-03-22T12:05:01;100409.03;;;17.36;50.97
76352;BME280;65179;47.786;19.138;2024-03-22T12:07:27;100406.56;;;17.34;51.81
76352;BME280;65179;47.786;19.138;2024-03-22T12:09:53;100415.38;;;17.41;52.40
76352;BME280;65179;47.786;19.138;2024-03-22T12:12:21;100418.84;;;17.27;50.91
76352;BME280;65179;47.786;19.138;2024-03-22T12:14:47;100404.38;;;17.41;51.39
76352;BME280;65179;47.786;19.138;2024-03-22T12:17:12;100415.53;;;17.62;51.95
76352;BME280;65179;47.786;19.138;2024-03-22T12:19:38;100401.31;;;17.33;50.29
76352;BME280;65179;47.786;19.138;2024-03-22T12:22:03;100409.72;;;17.16;50.99
76352;BME280;65179;47.786;19.138;2024-03-22T12:24:31;100403.81;;;17.34;51.24
76352;BME280;65179;47.786;19.138;2024-03-22T12:26:57;100408.94;;;17.21;51.16
76352;BME280;65179;47.786;19.138;2024-03-22T12:29:22;100419.94;;;16.67;52.42
76352;BME280;65179;47.786;19.138;2024-03-22T12:31:49;100408.25;;;17.09;51.92
76352;BME280;65179;47.786;19.138;2024-03-22T12:34:14;100404.00;;;17.23;50.56